createdAt,value
2023-03-31T00:01:24.382Z,0.25
2023-03-31T00:06:27.872Z,0.17
2023-03-31T00:11:31.532Z,0.11
2023-03-31T00:16:36.450Z,0.15
2023-03-31T00:21:42.880Z,0.06
2023-03-31T00:26:46.645Z,0.04
2023-03-31T00:31:51.565Z,0.00
2023-03-31T00:36:56.831Z,-0.14
2023-03-31T00:42:00.980Z,-0.21
2023-03-31T00:47:11.826Z,-0.20
2023-03-31T00:52:19.095Z,-0.23
2023-03-31T00:57:24.961Z,-0.42
2023-03-31T01:02:30.324Z,-0.38
2023-03-31T01:07:41.674Z,-0.42
2023-03-31T01:12:48.752Z,-0.42
2023-03-31T01:17:56.081Z,-0.44
2023-03-31T01:23:27.163Z,-0.44
2023-03-31T01:28:39.064Z,-0.48
2023-03-31T01:34:15.984Z,-0.64
2023-03-31T01:40:02.920Z,-0.62
2023-03-31T01:45:20.612Z,-0.79
2023-03-31T01:50:29.587Z,-0.71
2023-03-31T01:55:38.520Z,-0.69
2023-03-31T02:00:46.906Z,-0.74
2023-03-31T02:05:56.598Z,-0.82
2023-03-31T02:11:02.141Z,-0.93
2023-03-31T02:16:13.035Z,-0.98
2023-03-31T02:21:17.691Z,-1.01
2023-03-31T02:26:27.596Z,-1.02
2023-03-31T02:31:44.358Z,-1.06
2023-03-31T02:36:47.985Z,-1.06
2023-03-31T02:41:52.841Z,-1.01
2023-03-31T02:46:56.191Z,-1.07
2023-03-31T02:52:32.578Z,-1.16
2023-03-31T02:57:55.273Z,-1.18
2023-03-31T03:03:15.556Z,-1.36
2023-03-31T03:08:29.342Z,-1.27
2023-03-31T03:13:42.269Z,-1.30
2023-03-31T03:18:45.793Z,-1.29
2023-03-31T03:23:49.235Z,-1.33
2023-03-31T03:28:54.161Z,-1.31
2023-03-31T03:33:57.738Z,-1.26
2023-03-31T03:39:01.527Z,-1.30
2023-03-31T03:44:06.815Z,-1.21
2023-03-31T03:49:10.391Z,-1.17
2023-03-31T03:54:14.193Z,-1.11
2023-03-31T03:59:19.081Z,-1.04
2023-03-31T04:04:22.439Z,-0.82
2023-03-31T04:09:25.881Z,-0.42
2023-03-31T04:14:30.816Z,3.83
2023-03-31T04:19:34.784Z,5.08
2023-03-31T04:24:38.914Z,8.26
2023-03-31T04:29:54.784Z,5.26
2023-03-31T04:35:03.673Z,3.17
2023-03-31T04:40:09.483Z,2.38
2023-03-31T04:45:14.636Z,1.92
2023-03-31T04:50:18.283Z,1.84
2023-03-31T04:55:21.747Z,1.66
2023-03-31T05:00:27.224Z,2.15
2023-03-31T05:05:30.794Z,3.15
2023-03-31T05:10:34.255Z,6.64
2023-03-31T05:15:40.805Z,13.91
2023-03-31T05:20:44.315Z,16.19
2023-03-31T05:25:49.036Z,14.31
2023-03-31T05:30:53.927Z,12.12
2023-03-31T05:35:57.801Z,13.32
2023-03-31T05:41:01.322Z,17.10
2023-03-31T05:46:07.108Z,20.01
2023-03-31T05:51:10.816Z,21.03
2023-03-31T05:56:14.281Z,22.82
2023-03-31T06:01:19.983Z,23.42
2023-03-31T06:06:24.294Z,24.80
2023-03-31T06:11:27.925Z,24.03
2023-03-31T06:16:32.833Z,23.94
2023-03-31T06:21:36.597Z,25.70
2023-03-31T06:26:40.078Z,27.21
2023-03-31T06:31:44.988Z,28.38
2023-03-31T06:36:48.506Z,29.00
2023-03-31T06:41:51.986Z,29.22
2023-03-31T06:46:56.868Z,29.86
2023-03-31T06:52:00.316Z,30.62
2023-03-31T06:57:03.962Z,31.38
2023-03-31T07:02:08.541Z,31.53
2023-03-31T07:07:12.016Z,32.25
2023-03-31T07:12:15.445Z,32.26
2023-03-31T07:17:20.446Z,34.00
2023-03-31T07:22:23.912Z,33.30
2023-03-31T07:27:27.431Z,33.43
2023-03-31T07:32:33.308Z,33.55
2023-03-31T07:37:37.242Z,33.70
2023-03-31T07:42:40.734Z,34.28
2023-03-31T07:47:46.641Z,34.05
2023-03-31T07:52:50.327Z,34.10
2023-03-31T07:57:53.982Z,34.02
2023-03-31T08:02:59.196Z,31.43
2023-03-31T08:08:02.774Z,30.96
2023-03-31T08:13:06.376Z,29.78
2023-03-31T08:18:11.696Z,28.79
2023-03-31T08:28:51.562Z,23.83
2023-03-31T08:33:58.739Z,20.23
2023-03-31T08:39:02.189Z,18.76
2023-03-31T08:44:11.602Z,17.58
2023-03-31T08:49:19.775Z,15.58
2023-03-31T08:54:32.675Z,14.29
2023-03-31T08:59:37.843Z,13.53
2023-03-31T09:04:56.391Z,13.23
2023-03-31T09:10:09.126Z,12.48
2023-03-31T09:15:16.463Z,12.11
2023-03-31T09:20:24.499Z,11.48
2023-03-31T09:25:30.140Z,11.24
2023-03-31T09:30:36.751Z,10.85
2023-03-31T09:35:42.285Z,10.89
2023-03-31T09:40:47.029Z,10.98
2023-03-31T09:46:05.754Z,10.79
2023-03-31T09:51:20.109Z,11.12
2023-03-31T09:56:50.609Z,10.71
2023-03-31T10:01:59.102Z,10.36
2023-03-31T10:07:08.261Z,10.15
2023-03-31T10:12:20.322Z,10.14
2023-03-31T10:17:25.879Z,10.40
2023-03-31T10:22:32.588Z,10.35
2023-03-31T10:27:36.148Z,10.26
2023-03-31T10:32:43.360Z,10.46
2023-03-31T10:37:50.573Z,10.28
2023-03-31T10:43:02.876Z,10.46
2023-03-31T10:48:08.709Z,10.23
2023-03-31T10:53:15.186Z,9.62
2023-03-31T10:58:35.436Z,9.17
2023-03-31T11:04:01.586Z,8.92
2023-03-31T11:09:19.464Z,8.90
2023-03-31T11:14:34.061Z,9.01
2023-03-31T11:19:49.264Z,9.10
2023-03-31T11:25:18.634Z,9.09
2023-03-31T11:30:26.177Z,8.88
2023-03-31T11:35:47.476Z,8.47
2023-03-31T11:41:03.687Z,8.36
2023-03-31T11:46:12.589Z,8.37
2023-03-31T11:51:21.139Z,8.38
2023-03-31T11:56:30.614Z,8.38
2023-03-31T12:01:42.555Z,8.35
2023-03-31T12:06:49.519Z,8.48
2023-03-31T12:12:00.920Z,8.60
2023-03-31T12:17:11.699Z,8.68
2023-03-31T12:22:21.146Z,8.74
2023-03-31T12:27:29.427Z,8.92
2023-03-31T12:32:36.588Z,8.96
2023-03-31T12:38:15.550Z,8.96
2023-03-31T12:43:48.522Z,8.82
2023-03-31T12:49:06.726Z,8.74
2023-03-31T12:54:23.603Z,8.58
2023-03-31T12:59:34.032Z,8.59
2023-03-31T13:04:38.452Z,8.43
2023-03-31T13:09:53.068Z,8.34
2023-03-31T13:15:00.648Z,8.18
2023-03-31T13:20:40.658Z,8.07
2023-03-31T13:26:10.502Z,7.89
2023-03-31T13:31:16.422Z,7.81
2023-03-31T13:36:49.156Z,7.66
2023-03-31T13:42:08.678Z,7.52
2023-03-31T13:47:54.542Z,7.07
2023-03-31T13:53:06.780Z,7.20
2023-03-31T13:58:39.137Z,7.18
2023-03-31T14:04:00.075Z,7.07
2023-03-31T14:09:07.981Z,7.17
2023-03-31T14:14:15.715Z,7.07
2023-03-31T14:19:43.509Z,7.28
2023-03-31T14:24:53.176Z,7.16
2023-03-31T14:30:04.336Z,7.04
2023-03-31T14:35:26.779Z,7.01
2023-03-31T14:40:32.189Z,6.71
2023-03-31T14:45:35.669Z,6.80
2023-03-31T14:50:44.845Z,6.81
2023-03-31T14:55:58.763Z,6.48
2023-03-31T15:01:07.037Z,6.63
2023-03-31T15:06:13.521Z,6.38
2023-03-31T15:11:21.051Z,6.44
2023-03-31T15:16:35.159Z,6.46
2023-03-31T15:21:40.589Z,6.54
2023-03-31T15:26:49.821Z,6.60
2023-03-31T15:31:53.558Z,6.48
2023-03-31T15:36:59.157Z,6.52
2023-03-31T15:42:05.125Z,6.41
2023-03-31T15:47:15.197Z,6.22
2023-03-31T15:52:27.991Z,5.98
2023-03-31T15:57:36.461Z,5.85
2023-03-31T16:02:44.199Z,5.72
2023-03-31T16:07:49.408Z,5.70
2023-03-31T16:12:56.188Z,5.74
2023-03-31T16:18:04.483Z,5.67
2023-03-31T16:23:17.232Z,5.68
2023-03-31T16:28:24.278Z,5.56
2023-03-31T16:33:27.809Z,5.39
2023-03-31T16:38:32.620Z,5.36
2023-03-31T16:43:36.367Z,5.24
2023-03-31T16:48:39.793Z,5.22
2023-03-31T16:53:45.316Z,5.28
2023-03-31T16:58:49.044Z,5.13
2023-03-31T17:03:52.733Z,5.13
2023-03-31T17:08:57.887Z,5.08
2023-03-31T17:14:02.496Z,4.86
2023-03-31T17:19:06.129Z,4.77
2023-03-31T17:24:11.573Z,4.73
2023-03-31T17:29:16.655Z,4.45
2023-03-31T17:34:20.213Z,4.39
2023-03-31T17:39:25.262Z,4.20
2023-03-31T17:44:28.717Z,4.32
2023-03-31T17:49:32.552Z,4.49
2023-03-31T17:54:37.512Z,4.55
2023-03-31T17:59:40.679Z,4.54
2023-03-31T18:04:44.840Z,4.51
2023-03-31T18:09:49.949Z,4.53
2023-03-31T18:14:53.744Z,4.61
2023-03-31T18:19:57.787Z,4.67
2023-03-31T18:25:02.718Z,4.79
2023-03-31T18:30:08.258Z,4.72
2023-03-31T18:35:11.841Z,4.64
2023-03-31T18:40:17.530Z,4.58
2023-03-31T18:45:21.042Z,4.46
2023-03-31T18:50:24.575Z,4.50
2023-03-31T18:55:30.282Z,4.57
2023-03-31T19:00:34.076Z,4.39
2023-03-31T19:05:38.914Z,4.32
2023-03-31T19:10:43.946Z,4.10
2023-03-31T19:15:47.859Z,4.02
2023-03-31T19:20:51.842Z,3.92
2023-03-31T19:25:57.829Z,4.07
2023-03-31T19:31:04.319Z,4.08
2023-03-31T19:36:08.052Z,4.09
2023-03-31T19:41:12.996Z,4.14
2023-03-31T19:46:16.215Z,3.99
2023-03-31T19:51:19.936Z,3.77
2023-03-31T19:56:27.142Z,3.78
2023-03-31T20:01:30.708Z,3.61
2023-03-31T20:06:37.183Z,3.69
2023-03-31T20:11:43.568Z,3.77
2023-03-31T20:16:48.069Z,3.74
2023-03-31T20:21:56.188Z,3.82
2023-03-31T20:27:01.635Z,3.87
2023-03-31T20:32:06.025Z,3.97
2023-03-31T20:37:09.474Z,3.90
2023-03-31T20:42:14.253Z,4.00
2023-03-31T20:47:17.823Z,3.96
2023-03-31T20:52:21.454Z,3.93
2023-03-31T20:57:26.550Z,3.92
2023-03-31T21:02:30.039Z,3.84
2023-03-31T21:07:33.505Z,3.81
2023-03-31T21:12:38.340Z,3.87
2023-03-31T21:17:41.858Z,3.85
2023-03-31T21:22:45.346Z,3.66
2023-03-31T21:27:50.262Z,3.70
2023-03-31T21:32:54.046Z,3.87
2023-03-31T21:37:57.449Z,3.68
2023-03-31T21:43:02.709Z,3.70
2023-03-31T21:48:08.235Z,3.69
2023-03-31T21:53:12.268Z,3.59
2023-03-31T21:58:17.977Z,3.65
2023-03-31T22:03:27.578Z,3.43
2023-03-31T22:08:32.322Z,3.57
2023-03-31T22:13:37.996Z,3.62
2023-03-31T22:18:41.420Z,3.51
2023-03-31T22:23:44.851Z,3.65
2023-03-31T22:28:50.325Z,3.63
2023-03-31T22:33:53.775Z,3.61
2023-03-31T22:38:57.225Z,3.71
2023-03-31T22:44:02.067Z,3.65
2023-03-31T22:49:06.406Z,3.49
2023-03-31T22:54:14.731Z,3.31
2023-03-31T22:59:19.678Z,3.37
2023-03-31T23:04:23.336Z,3.53
2023-03-31T23:09:27.295Z,3.52
2023-03-31T23:14:32.343Z,3.59
2023-03-31T23:19:37.385Z,3.56
2023-03-31T23:24:40.882Z,3.53
2023-03-31T23:29:46.211Z,3.47
2023-03-31T23:34:49.625Z,3.49
2023-03-31T23:39:53.080Z,3.46
2023-03-31T23:44:57.940Z,3.51
2023-03-31T23:50:01.325Z,3.55
2023-03-31T23:55:06.811Z,3.48
